createdAt,value
2023-04-17T00:00:13.127Z,4.97
2023-04-17T00:02:40.639Z,4.80
2023-04-17T00:05:08.261Z,7.05
2023-04-17T00:07:38.544Z,4.53
2023-04-17T00:10:07.867Z,4.55
2023-04-17T00:12:34.690Z,4.65
2023-04-17T00:15:01.350Z,7.65
2023-04-17T00:17:27.836Z,4.93
2023-04-17T00:19:54.281Z,5.53
2023-04-17T00:22:20.747Z,5.78
2023-04-17T00:24:47.130Z,5.53
2023-04-17T00:27:13.577Z,6.43
2023-04-17T00:29:40.100Z,5.28
2023-04-17T00:32:06.598Z,5.47
2023-04-17T00:34:33.175Z,4.70
2023-04-17T00:36:59.599Z,6.93
2023-04-17T00:39:26.358Z,6.93
2023-04-17T00:41:52.807Z,6.68
2023-04-17T00:44:19.185Z,5.53
2023-04-17T00:46:46.270Z,5.35
2023-04-17T00:49:13.700Z,6.07
2023-04-17T00:51:40.279Z,5.43
2023-04-17T00:54:07.844Z,8.95
2023-04-17T00:56:34.332Z,5.68
2023-04-17T00:59:01.649Z,5.55
2023-04-17T01:01:28.189Z,6.70
2023-04-17T01:03:55.102Z,7.45
2023-04-17T01:06:21.653Z,6.18
2023-04-17T01:08:48.154Z,9.00
2023-04-17T01:11:14.552Z,4.95
2023-04-17T01:13:48.157Z,6.38
2023-04-17T01:16:15.491Z,6.03
2023-04-17T01:18:42.054Z,7.53
2023-04-17T01:21:08.497Z,5.63
2023-04-17T01:23:46.930Z,5.65
2023-04-17T01:26:17.764Z,5.85
2023-04-17T01:28:49.338Z,5.57
2023-04-17T01:31:16.304Z,8.18
2023-04-17T01:33:42.896Z,5.63
2023-04-17T01:36:09.398Z,5.40
2023-04-17T01:38:35.829Z,5.25
2023-04-17T01:41:09.527Z,8.15
2023-04-17T01:43:40.549Z,7.50
2023-04-17T01:46:07.272Z,5.38
2023-04-17T01:48:34.539Z,6.07
2023-04-17T01:51:01.360Z,6.07
2023-04-17T01:53:30.170Z,5.82
2023-04-17T01:55:56.681Z,5.80
2023-04-17T01:58:23.308Z,7.03
2023-04-17T02:00:49.839Z,6.03
2023-04-17T02:03:16.900Z,5.78
2023-04-17T02:05:47.270Z,6.65
2023-04-17T02:08:14.596Z,5.68
2023-04-17T02:10:42.024Z,7.70
2023-04-17T02:13:09.586Z,5.82
2023-04-17T02:15:36.866Z,5.72
2023-04-17T02:18:06.058Z,7.72
2023-04-17T02:20:33.544Z,9.88
2023-04-17T02:23:00.604Z,7.22
2023-04-17T02:25:27.742Z,9.10
2023-04-17T02:27:56.114Z,6.60
2023-04-17T02:30:23.713Z,6.38
2023-04-17T02:32:54.431Z,9.07
2023-04-17T02:35:22.837Z,9.30
2023-04-17T02:37:49.499Z,8.50
2023-04-17T02:40:16.568Z,15.02
2023-04-17T02:42:43.258Z,6.18
2023-04-17T02:45:10.919Z,6.97
2023-04-17T02:47:38.044Z,6.50
2023-04-17T02:50:05.267Z,7.75
2023-04-17T02:52:33.000Z,9.65
2023-04-17T02:54:59.746Z,9.80
2023-04-17T02:57:26.231Z,9.73
2023-04-17T02:59:52.865Z,8.50
2023-04-17T03:02:22.974Z,9.25
2023-04-17T03:04:50.616Z,7.05
2023-04-17T03:07:23.476Z,6.60
2023-04-17T03:09:53.491Z,8.05
2023-04-17T03:12:20.327Z,6.80
2023-04-17T03:14:46.804Z,6.88
2023-04-17T03:17:14.128Z,8.02
2023-04-17T03:19:40.703Z,6.45
2023-04-17T03:22:07.089Z,9.38
2023-04-17T03:24:33.741Z,10.82
2023-04-17T03:27:02.171Z,10.13
2023-04-17T03:29:28.602Z,5.95
2023-04-17T03:31:55.070Z,8.85
2023-04-17T03:34:21.844Z,7.38
2023-04-17T03:36:48.441Z,8.13
2023-04-17T03:39:14.950Z,7.25
2023-04-17T03:41:41.446Z,9.82
2023-04-17T03:44:09.080Z,5.88
2023-04-17T03:46:36.044Z,5.28
2023-04-17T03:49:02.525Z,7.85
2023-04-17T03:51:28.957Z,8.25
2023-04-17T03:53:55.586Z,6.55
2023-04-17T03:56:22.096Z,9.93
2023-04-17T03:58:48.612Z,7.55
2023-04-17T04:01:15.673Z,7.47
2023-04-17T04:03:42.448Z,8.45
2023-04-17T04:06:09.490Z,9.32
2023-04-17T04:08:35.930Z,7.30
2023-04-17T04:11:03.168Z,6.85
2023-04-17T04:13:29.544Z,7.20
2023-04-17T04:15:56.007Z,11.15
2023-04-17T04:18:22.448Z,8.60
2023-04-17T04:20:48.888Z,10.90
2023-04-17T04:23:16.659Z,7.32
2023-04-17T04:25:43.599Z,6.05
2023-04-17T04:28:10.500Z,7.65
2023-04-17T04:30:38.643Z,8.57
2023-04-17T04:33:05.850Z,10.80
2023-04-17T04:35:32.625Z,15.20
2023-04-17T04:38:02.439Z,8.48
2023-04-17T04:40:30.710Z,8.15
2023-04-17T04:42:57.180Z,7.50
2023-04-17T04:45:23.772Z,10.05
2023-04-17T04:47:50.251Z,17.52
2023-04-17T04:50:16.945Z,10.02
2023-04-17T04:52:43.418Z,8.40
2023-04-17T04:55:09.801Z,11.02
2023-04-17T04:57:36.350Z,15.95
2023-04-17T05:00:06.282Z,8.43
2023-04-17T05:02:32.830Z,8.32
2023-04-17T05:04:59.392Z,9.88
2023-04-17T05:07:26.009Z,10.18
2023-04-17T05:09:52.425Z,10.95
2023-04-17T05:12:18.919Z,11.02
2023-04-17T05:14:45.387Z,9.63
2023-04-17T05:17:11.784Z,11.90
2023-04-17T05:19:38.181Z,11.40
2023-04-17T05:22:04.622Z,21.40
2023-04-17T05:24:31.092Z,10.30
2023-04-17T05:26:58.140Z,7.90
2023-04-17T05:29:25.227Z,9.18
2023-04-17T05:31:51.739Z,7.38
2023-04-17T05:34:18.179Z,9.77
2023-04-17T05:36:44.574Z,8.30
2023-04-17T05:39:11.271Z,9.90
2023-04-17T05:41:37.879Z,7.47
2023-04-17T05:44:04.421Z,9.57
2023-04-17T05:46:30.818Z,7.43
2023-04-17T05:48:57.268Z,10.45
2023-04-17T05:51:23.659Z,7.80
2023-04-17T05:53:50.295Z,8.35
2023-04-17T05:56:16.717Z,10.30
2023-04-17T05:58:43.125Z,9.25
2023-04-17T06:01:10.259Z,10.52
2023-04-17T06:03:37.754Z,8.13
2023-04-17T06:06:04.621Z,7.18
2023-04-17T06:08:31.293Z,7.93
2023-04-17T06:10:57.914Z,13.38
2023-04-17T06:13:25.560Z,8.02
2023-04-17T06:15:52.089Z,10.77
2023-04-17T06:18:18.570Z,8.63
2023-04-17T06:20:45.937Z,9.55
2023-04-17T06:23:12.442Z,8.02
2023-04-17T06:25:38.904Z,9.10
2023-04-17T06:28:05.488Z,10.48
2023-04-17T06:30:31.923Z,8.95
2023-04-17T06:32:58.548Z,10.25
2023-04-17T06:35:25.005Z,11.75
2023-04-17T06:37:51.456Z,8.35
2023-04-17T06:40:17.882Z,11.75
2023-04-17T06:42:44.296Z,10.07
2023-04-17T06:45:11.471Z,9.00
2023-04-17T06:47:37.987Z,9.10
2023-04-17T06:50:04.891Z,12.98
2023-04-17T06:52:31.577Z,8.70
2023-04-17T06:54:58.655Z,11.32
2023-04-17T06:57:25.155Z,11.57
2023-04-17T06:59:51.538Z,11.30
2023-04-17T07:02:18.112Z,9.65
2023-04-17T07:04:44.849Z,10.25
2023-04-17T07:07:11.632Z,8.65
2023-04-17T07:09:38.183Z,14.10
2023-04-17T07:12:04.862Z,11.38
2023-04-17T07:14:31.492Z,8.65
2023-04-17T07:16:57.935Z,11.55
2023-04-17T07:19:24.393Z,10.70
2023-04-17T07:21:50.827Z,8.77
2023-04-17T07:24:17.268Z,9.73
2023-04-17T07:26:43.933Z,10.43
2023-04-17T07:29:10.696Z,18.50
2023-04-17T07:31:38.678Z,9.95
2023-04-17T07:34:05.427Z,9.45
2023-04-17T07:36:32.192Z,8.88
2023-04-17T07:38:58.729Z,9.77
2023-04-17T07:41:25.503Z,10.27
2023-04-17T07:43:51.923Z,10.07
2023-04-17T07:46:18.552Z,11.80
2023-04-17T07:48:44.987Z,9.52
2023-04-17T07:51:11.553Z,11.05
2023-04-17T07:53:38.618Z,10.55
2023-04-17T07:56:06.456Z,12.48
2023-04-17T07:58:35.600Z,10.40
2023-04-17T08:01:05.540Z,10.90
2023-04-17T08:03:32.318Z,14.75
2023-04-17T08:05:59.014Z,10.10
2023-04-17T08:08:25.657Z,9.00
2023-04-17T08:10:52.416Z,11.38
2023-04-17T08:13:18.987Z,11.75
2023-04-17T08:15:45.833Z,11.57
2023-04-17T08:18:13.945Z,10.88
2023-04-17T08:20:40.511Z,11.10
2023-04-17T08:23:07.357Z,15.73
2023-04-17T08:25:33.798Z,10.55
2023-04-17T08:28:00.364Z,9.77
2023-04-17T08:30:26.844Z,15.65
2023-04-17T08:32:55.290Z,12.57
2023-04-17T08:35:21.818Z,12.55
2023-04-17T08:37:48.262Z,11.95
2023-04-17T08:40:16.915Z,11.13
2023-04-17T08:42:43.494Z,10.38
2023-04-17T08:45:13.988Z,16.88
2023-04-17T08:47:41.514Z,11.90
2023-04-17T08:50:10.903Z,11.82
2023-04-17T08:52:55.306Z,11.65
2023-04-17T08:55:25.407Z,13.60
2023-04-17T08:58:00.730Z,11.18
2023-04-17T09:00:29.049Z,10.68
2023-04-17T09:02:57.251Z,11.25
2023-04-17T09:05:28.948Z,15.82
2023-04-17T09:08:25.871Z,11.68
2023-04-17T09:10:55.886Z,11.32
2023-04-17T09:13:25.143Z,9.75
2023-04-17T09:16:21.389Z,8.02
2023-04-17T09:18:51.086Z,9.85
2023-04-17T09:21:18.858Z,13.70
2023-04-17T09:23:56.313Z,8.43
2023-04-17T09:26:25.374Z,8.77
2023-04-17T09:29:07.761Z,9.02
2023-04-17T09:31:34.976Z,10.43
2023-04-17T09:34:02.677Z,6.30
2023-04-17T09:36:31.321Z,6.90
2023-04-17T09:39:00.930Z,6.95
2023-04-17T09:41:29.516Z,7.53
2023-04-17T09:44:05.361Z,7.55
2023-04-17T09:46:41.303Z,6.00
2023-04-17T09:49:09.887Z,4.97
2023-04-17T09:51:36.779Z,6.90
2023-04-17T09:54:09.664Z,4.97
2023-04-17T09:56:37.750Z,6.15
2023-04-17T09:59:05.604Z,7.50
2023-04-17T10:01:33.930Z,7.43
2023-04-17T10:04:01.813Z,8.93
2023-04-17T10:06:31.208Z,8.43
2023-04-17T10:08:57.863Z,8.48
2023-04-17T10:11:28.705Z,6.30
2023-04-17T10:14:19.638Z,4.88
2023-04-17T10:16:47.222Z,7.93
2023-04-17T10:19:33.989Z,7.65
2023-04-17T10:22:15.854Z,7.60
2023-04-17T10:24:43.072Z,8.98
2023-04-17T10:27:24.537Z,7.50
2023-04-17T10:29:55.956Z,8.40
2023-04-17T10:32:25.443Z,4.53
2023-04-17T10:34:59.724Z,3.95
2023-04-17T10:37:48.377Z,2.90
2023-04-17T10:40:23.430Z,4.60
2023-04-17T10:43:20.392Z,4.55
2023-04-17T10:46:10.386Z,5.07
2023-04-17T10:48:47.495Z,4.82
2023-04-17T10:51:23.261Z,5.10
2023-04-17T10:53:51.251Z,5.35
2023-04-17T10:56:27.739Z,5.03
2023-04-17T10:58:59.239Z,6.28
2023-04-17T11:01:37.562Z,6.10
2023-04-17T11:04:04.947Z,9.55
2023-04-17T11:06:33.039Z,6.47
2023-04-17T11:09:00.331Z,5.68
2023-04-17T11:11:40.390Z,6.63
2023-04-17T11:14:14.612Z,8.85
2023-04-17T11:16:43.311Z,11.70
2023-04-17T11:19:11.558Z,9.60
2023-04-17T11:21:49.656Z,8.32
2023-04-17T11:24:29.607Z,7.32
2023-04-17T11:26:59.653Z,6.65
2023-04-17T11:29:27.061Z,7.30
2023-04-17T11:31:55.337Z,7.10
2023-04-17T11:34:22.406Z,11.30
2023-04-17T11:36:53.863Z,8.07
2023-04-17T11:39:22.574Z,8.05
2023-04-17T11:41:51.338Z,7.45
2023-04-17T11:44:20.308Z,7.25
2023-04-17T11:46:53.945Z,9.07
2023-04-17T11:49:31.077Z,7.75
2023-04-17T11:52:01.324Z,8.93
2023-04-17T11:54:29.440Z,8.63
2023-04-17T11:57:02.736Z,7.18
2023-04-17T11:59:32.954Z,7.78
2023-04-17T12:02:01.718Z,8.13
2023-04-17T12:04:35.061Z,17.08
2023-04-17T12:07:06.673Z,5.85
2023-04-17T12:09:34.316Z,7.63
2023-04-17T12:12:08.090Z,6.97
2023-04-17T12:14:35.136Z,6.70
2023-04-17T12:17:01.741Z,7.05
2023-04-17T12:19:29.589Z,6.05
2023-04-17T12:21:56.597Z,6.03
2023-04-17T12:24:24.835Z,8.60
2023-04-17T12:26:51.776Z,8.88
2023-04-17T12:29:22.054Z,10.30
2023-04-17T12:31:56.403Z,6.20
2023-04-17T12:34:23.089Z,8.18
2023-04-17T12:36:50.938Z,7.90
2023-04-17T12:39:17.503Z,8.65
2023-04-17T12:41:44.179Z,5.82
2023-04-17T12:44:11.108Z,7.78
2023-04-17T12:46:37.879Z,6.72
2023-04-17T12:49:04.398Z,7.45
2023-04-17T12:51:32.264Z,5.60
2023-04-17T12:53:58.687Z,7.68
2023-04-17T12:56:25.215Z,7.90
2023-04-17T12:58:51.638Z,6.28
2023-04-17T13:01:18.058Z,5.90
2023-04-17T13:03:44.639Z,4.97
2023-04-17T13:06:11.493Z,7.07
2023-04-17T13:08:37.943Z,5.53
2023-04-17T13:11:04.672Z,5.65
2023-04-17T13:13:31.389Z,6.32
2023-04-17T13:15:58.454Z,5.57
2023-04-17T13:18:24.967Z,7.45
2023-04-17T13:20:51.408Z,6.75
2023-04-17T13:23:17.811Z,4.65
2023-04-17T13:25:44.259Z,4.65
2023-04-17T13:28:10.812Z,4.97
2023-04-17T13:30:37.845Z,5.20
2023-04-17T13:33:04.580Z,4.93
2023-04-17T13:35:31.168Z,6.35
2023-04-17T13:38:00.906Z,6.63
2023-04-17T13:40:27.703Z,6.28
2023-04-17T13:42:54.536Z,5.25
2023-04-17T13:45:21.395Z,5.03
2023-04-17T13:47:47.882Z,4.68
2023-04-17T13:50:14.494Z,6.18
2023-04-17T13:52:40.942Z,4.15
2023-04-17T13:55:11.702Z,5.47
2023-04-17T13:57:38.185Z,7.03
2023-04-17T14:00:05.100Z,5.13
2023-04-17T14:02:31.753Z,7.45
2023-04-17T14:04:58.627Z,4.43
2023-04-17T14:07:27.388Z,5.80
2023-04-17T14:09:53.920Z,5.22
2023-04-17T14:12:21.850Z,6.53
2023-04-17T14:14:48.407Z,4.70
2023-04-17T14:17:14.885Z,8.98
2023-04-17T14:19:41.384Z,3.60
2023-04-17T14:22:07.974Z,6.65
2023-04-17T14:24:34.471Z,5.05
2023-04-17T14:27:01.830Z,9.00
2023-04-17T14:29:28.522Z,5.78
2023-04-17T14:31:55.280Z,3.38
2023-04-17T14:34:21.841Z,3.38
2023-04-17T14:36:48.700Z,6.03
2023-04-17T14:39:15.493Z,4.57
2023-04-17T14:41:42.109Z,3.70
2023-04-17T14:44:08.780Z,3.80
2023-04-17T14:46:35.436Z,4.80
2023-04-17T14:49:02.250Z,5.32
2023-04-17T14:51:30.455Z,6.80
2023-04-17T14:53:57.502Z,5.68
2023-04-17T14:56:24.307Z,5.85
2023-04-17T14:58:50.828Z,4.18
2023-04-17T15:01:17.450Z,4.22
2023-04-17T15:03:46.782Z,3.72
2023-04-17T15:06:15.147Z,4.93
2023-04-17T15:08:41.757Z,3.83
2023-04-17T15:11:08.723Z,4.70
2023-04-17T15:13:35.764Z,3.97
2023-04-17T15:16:02.684Z,4.60
2023-04-17T15:18:29.202Z,3.90
2023-04-17T15:20:55.962Z,4.47
2023-04-17T15:23:22.795Z,5.97
2023-04-17T15:25:49.368Z,3.63
2023-04-17T15:28:15.909Z,4.85
2023-04-17T15:30:42.649Z,5.22
2023-04-17T15:33:10.291Z,4.30
2023-04-17T15:35:37.445Z,4.20
2023-04-17T15:38:07.358Z,4.45
2023-04-17T15:40:33.887Z,4.03
2023-04-17T15:43:00.693Z,4.93
2023-04-17T15:45:27.329Z,3.85
2023-04-17T15:47:54.639Z,6.05
2023-04-17T15:50:21.519Z,4.53
2023-04-17T15:52:48.250Z,5.03
2023-04-17T15:55:15.688Z,4.53
2023-04-17T15:57:43.378Z,4.78
2023-04-17T16:00:10.524Z,5.32
2023-04-17T16:02:37.846Z,5.68
2023-04-17T16:05:07.225Z,4.35
2023-04-17T16:07:33.617Z,6.70
2023-04-17T16:10:00.310Z,5.55
2023-04-17T16:12:28.083Z,7.03
2023-04-17T16:14:54.637Z,6.68
2023-04-17T16:17:21.199Z,5.32
2023-04-17T16:19:50.144Z,4.30
2023-04-17T16:22:22.949Z,3.83
2023-04-17T16:24:52.642Z,4.50
2023-04-17T16:27:19.030Z,6.30
2023-04-17T16:29:45.839Z,5.35
2023-04-17T16:32:14.155Z,5.40
2023-04-17T16:34:40.957Z,5.50
2023-04-17T16:37:07.430Z,2.90
2023-04-17T16:39:33.835Z,3.00
2023-04-17T16:42:01.277Z,5.55
2023-04-17T16:44:28.082Z,3.67
2023-04-17T16:49:25.410Z,6.45
2023-04-17T16:51:51.843Z,4.07
2023-04-17T16:54:20.502Z,7.22
2023-04-17T16:56:49.789Z,3.70
2023-04-17T16:59:16.358Z,3.72
2023-04-17T17:01:42.819Z,3.38
2023-04-17T17:04:09.321Z,5.25
2023-04-17T17:06:35.972Z,3.60
2023-04-17T17:09:02.441Z,4.38
2023-04-17T17:11:28.981Z,3.20
2023-04-17T17:13:56.129Z,3.45
2023-04-17T17:16:22.601Z,3.15
2023-04-17T17:18:49.210Z,2.80
2023-04-17T17:21:15.841Z,4.13
2023-04-17T17:23:42.466Z,4.72
2023-04-17T17:26:09.070Z,7.97
2023-04-17T17:28:35.632Z,7.35
2023-04-17T17:31:04.723Z,4.07
2023-04-17T17:33:32.221Z,5.93
2023-04-17T17:35:59.244Z,6.97
2023-04-17T17:38:28.601Z,7.50
2023-04-17T17:40:58.387Z,4.25
2023-04-17T17:43:24.954Z,9.55
2023-04-17T17:45:53.376Z,7.93
2023-04-17T17:48:20.507Z,8.00
2023-04-17T17:50:47.848Z,6.95
2023-04-17T17:53:16.920Z,6.13
2023-04-17T17:55:50.542Z,2.92
2023-04-17T17:58:17.179Z,5.38
2023-04-17T18:00:43.894Z,5.45
2023-04-17T18:03:10.568Z,6.38
2023-04-17T18:05:37.152Z,4.13
2023-04-17T18:08:03.632Z,4.78
2023-04-17T18:10:30.154Z,5.80
2023-04-17T18:12:56.568Z,3.78
2023-04-17T18:15:23.260Z,10.13
2023-04-17T18:17:50.334Z,8.63
2023-04-17T18:20:17.008Z,8.45
2023-04-17T18:22:43.398Z,3.80
2023-04-17T18:25:10.434Z,7.60
2023-04-17T18:27:36.937Z,4.95
2023-04-17T18:30:08.513Z,10.05
2023-04-17T18:32:35.923Z,9.23
2023-04-17T18:35:02.825Z,6.32
2023-04-17T18:37:29.773Z,11.23
2023-04-17T18:39:56.304Z,4.82
2023-04-17T18:42:22.920Z,6.28
2023-04-17T18:44:49.884Z,6.68
2023-04-17T18:47:16.752Z,5.82
2023-04-17T18:49:43.198Z,8.63
2023-04-17T18:52:09.654Z,7.72
2023-04-17T18:54:36.127Z,5.22
2023-04-17T18:57:02.561Z,5.43
2023-04-17T18:59:28.996Z,5.82
2023-04-17T19:01:55.539Z,7.50
2023-04-17T19:04:21.958Z,6.10
2023-04-17T19:06:48.405Z,10.10
2023-04-17T19:09:14.827Z,60.60
2023-04-17T19:11:41.294Z,71.72
2023-04-17T19:14:07.675Z,25.40
2023-04-17T19:16:34.203Z,60.85
2023-04-17T19:19:00.780Z,58.33
2023-04-17T19:21:28.227Z,47.78
2023-04-17T19:23:54.622Z,67.43
2023-04-17T19:26:21.076Z,27.85
2023-04-17T19:28:47.477Z,14.60
2023-04-17T19:31:14.046Z,10.85
2023-04-17T19:33:40.547Z,10.60
2023-04-17T19:36:07.009Z,8.27
2023-04-17T19:38:33.497Z,9.35
2023-04-17T19:41:15.033Z,7.97
2023-04-17T19:43:42.470Z,9.48
2023-04-17T19:46:09.554Z,9.25
2023-04-17T19:48:36.980Z,9.13
2023-04-17T19:51:06.322Z,6.00
2023-04-17T19:53:36.980Z,8.60
2023-04-17T19:56:06.950Z,7.75
2023-04-17T20:01:01.617Z,5.30
2023-04-17T20:03:29.936Z,8.52
2023-04-17T20:05:57.394Z,7.38
2023-04-17T20:08:24.638Z,6.47
2023-04-17T20:10:51.166Z,5.90
2023-04-17T20:13:17.594Z,8.27
2023-04-17T20:15:44.069Z,8.77
2023-04-17T20:18:11.400Z,8.77
2023-04-17T20:20:39.103Z,10.43
2023-04-17T20:23:05.958Z,8.43
2023-04-17T20:25:32.397Z,9.13
2023-04-17T20:27:58.941Z,8.50
2023-04-17T20:30:25.524Z,10.38
2023-04-17T20:32:52.101Z,9.10
2023-04-17T20:35:20.930Z,9.48
2023-04-17T20:37:47.457Z,9.38
2023-04-17T20:40:14.303Z,8.48
2023-04-17T20:42:41.905Z,12.05
2023-04-17T20:45:09.020Z,9.77
2023-04-17T20:47:37.408Z,7.75
2023-04-17T20:50:05.952Z,10.10
2023-04-17T20:52:33.215Z,10.07
2023-04-17T20:55:01.000Z,8.57
2023-04-17T20:57:28.622Z,11.65
2023-04-17T20:59:55.446Z,15.00
2023-04-17T21:02:22.038Z,17.30
2023-04-17T21:07:33.439Z,14.77
2023-04-17T21:09:59.963Z,11.80
2023-04-17T21:12:26.611Z,11.23
2023-04-17T21:14:53.120Z,10.63
2023-04-17T21:17:19.822Z,11.65
2023-04-17T21:19:46.356Z,9.10
2023-04-17T21:22:14.017Z,9.68
2023-04-17T21:24:40.674Z,11.02
2023-04-17T21:27:07.179Z,11.75
2023-04-17T21:29:33.693Z,13.43
2023-04-17T21:32:00.351Z,12.15
2023-04-17T21:34:27.000Z,12.02
2023-04-17T21:36:54.026Z,9.40
2023-04-17T21:39:21.393Z,9.52
2023-04-17T21:41:48.163Z,10.68
2023-04-17T21:44:15.225Z,14.73
2023-04-17T21:46:45.212Z,12.50
2023-04-17T21:49:12.318Z,15.82
2023-04-17T21:51:39.129Z,10.95
2023-04-17T21:54:05.789Z,13.18
2023-04-17T21:56:32.431Z,11.52
2023-04-17T21:58:58.964Z,12.38
2023-04-17T22:01:25.614Z,10.90
2023-04-17T22:03:52.080Z,12.57
2023-04-17T22:06:18.572Z,11.18
2023-04-17T22:08:45.204Z,11.13
2023-04-17T22:11:11.865Z,13.50
2023-04-17T22:13:38.336Z,15.52
2023-04-17T22:16:05.086Z,10.48
2023-04-17T22:18:31.584Z,10.90
2023-04-17T22:20:57.996Z,11.38
2023-04-17T22:23:24.457Z,11.07
2023-04-17T22:25:50.891Z,10.90
2023-04-17T22:28:17.354Z,10.45
2023-04-17T22:30:43.825Z,11.63
2023-04-17T22:33:10.225Z,11.60
2023-04-17T22:35:36.800Z,10.13
2023-04-17T22:38:03.232Z,10.70
2023-04-17T22:40:30.156Z,10.98
2023-04-17T22:42:56.610Z,12.10
2023-04-17T22:45:22.984Z,10.70
2023-04-17T22:47:49.465Z,11.07
2023-04-17T22:50:17.627Z,9.85
2023-04-17T22:52:44.082Z,12.80
2023-04-17T22:55:10.994Z,10.38
2023-04-17T22:57:37.505Z,13.18
2023-04-17T23:00:04.271Z,12.27
2023-04-17T23:02:30.973Z,10.85
2023-04-17T23:04:57.464Z,11.02
2023-04-17T23:07:23.978Z,11.38
2023-04-17T23:09:50.377Z,10.55
2023-04-17T23:12:16.765Z,11.13
2023-04-17T23:14:44.164Z,12.00
2023-04-17T23:17:10.574Z,10.52
2023-04-17T23:19:36.950Z,12.20
2023-04-17T23:22:03.490Z,11.65
2023-04-17T23:24:33.020Z,13.50
2023-04-17T23:27:00.028Z,10.70
2023-04-17T23:29:26.416Z,10.18
2023-04-17T23:31:53.097Z,10.55
2023-04-17T23:34:19.876Z,11.13
2023-04-17T23:36:47.104Z,12.05
2023-04-17T23:39:13.517Z,11.52
2023-04-17T23:41:42.656Z,11.00
2023-04-17T23:44:09.732Z,12.05
2023-04-17T23:46:36.548Z,11.93
2023-04-17T23:49:03.649Z,12.90
2023-04-17T23:51:30.409Z,10.93
2023-04-17T23:54:01.073Z,12.13
2023-04-17T23:56:29.827Z,14.80
2023-04-17T23:58:56.872Z,10.40
